sensor_id;sensor_type;location;lat;lon;timestamp;P1;durP1;ratioP1;P2;durP2;ratioP2
26038;SDS011;13815;52.374;4.882;2023-07-16T00:02:04;4.93;;;4.82;;
26038;SDS011;13815;52.374;4.882;2023-07-16T00:04:30;4.00;;;3.90;;
26038;SDS011;13815;52.374;4.882;2023-07-16T00:06:56;3.90;;;3.80;;
26038;SDS011;13815;52.374;4.882;2023-07-16T00:09:22;3.10;;;3.00;;
26038;SDS011;13815;52.374;4.882;2023-07-16T00:11:47;2.80;;;2.80;;
26038;SDS011;13815;52.374;4.882;2023-07-16T00:14:12;2.65;;;2.65;;
26038;SDS011;13815;52.374;4.882;2023-07-16T00:16:38;2.60;;;2.60;;
26038;SDS011;13815;52.374;4.882;2023-07-16T00:19:03;2.80;;;2.80;;
26038;SDS011;13815;52.374;4.882;2023-07-16T00:21:29;3.25;;;3.15;;
26038;SDS011;13815;52.374;4.882;2023-07-16T00:23:54;3.30;;;3.20;;
26038;SDS011;13815;52.374;4.882;2023-07-16T00:26:20;3.30;;;3.20;;
26038;SDS011;13815;52.374;4.882;2023-07-16T00:28:46;3.63;;;3.53;;
26038;SDS011;13815;52.374;4.882;2023-07-16T00:31:11;3.60;;;3.50;;
26038;SDS011;13815;52.374;4.882;2023-07-16T00:33:37;4.50;;;4.30;;
26038;SDS011;13815;52.374;4.882;2023-07-16T00:36:02;4.70;;;4.60;;
26038;SDS011;13815;52.374;4.882;2023-07-16T00:38:27;5.50;;;5.40;;
26038;SDS011;13815;52.374;4.882;2023-07-16T00:40:53;5.90;;;5.80;;
26038;SDS011;13815;52.374;4.882;2023-07-16T00:43:18;6.20;;;6.00;;
26038;SDS011;13815;52.374;4.882;2023-07-16T00:45:45;6.78;;;6.57;;
26038;SDS011;13815;52.374;4.882;2023-07-16T00:48:11;7.10;;;6.90;;
26038;SDS011;13815;52.374;4.882;2023-07-16T00:50:36;7.80;;;7.60;;
26038;SDS011;13815;52.374;4.882;2023-07-16T00:53:07;7.82;;;7.63;;
26038;SDS011;13815;52.374;4.882;2023-07-16T00:55:33;7.97;;;7.78;;
26038;SDS011;13815;52.374;4.882;2023-07-16T00:58:02;8.60;;;8.30;;
26038;SDS011;13815;52.374;4.882;2023-07-16T01:00:30;8.45;;;8.23;;
26038;SDS011;13815;52.374;4.882;2023-07-16T01:02:56;8.60;;;8.30;;
26038;SDS011;13815;52.374;4.882;2023-07-16T01:05:22;8.30;;;8.10;;
26038;SDS011;13815;52.374;4.882;2023-07-16T01:07:54;8.70;;;8.40;;
26038;SDS011;13815;52.374;4.882;2023-07-16T01:10:21;8.35;;;8.15;;
26038;SDS011;13815;52.374;4.882;2023-07-16T01:12:47;8.90;;;8.60;;
26038;SDS011;13815;52.374;4.882;2023-07-16T01:15:14;9.00;;;8.70;;
26038;SDS011;13815;52.374;4.882;2023-07-16T01:17:42;9.00;;;8.70;;
26038;SDS011;13815;52.374;4.882;2023-07-16T01:20:08;9.30;;;9.00;;
26038;SDS011;13815;52.374;4.882;2023-07-16T01:22:45;8.85;;;8.55;;
26038;SDS011;13815;52.374;4.882;2023-07-16T01:31:19;5.40;;;5.30;;
26038;SDS011;13815;52.374;4.882;2023-07-16T01:33:47;5.10;;;5.00;;
26038;SDS011;13815;52.374;4.882;2023-07-16T01:36:13;4.95;;;4.85;;
26038;SDS011;13815;52.374;4.882;2023-07-16T01:38:39;5.32;;;5.22;;
26038;SDS011;13815;52.374;4.882;2023-07-16T01:41:04;5.93;;;5.82;;
26038;SDS011;13815;52.374;4.882;2023-07-16T01:43:30;6.30;;;6.10;;
26038;SDS011;13815;52.374;4.882;2023-07-16T01:45:55;6.57;;;6.35;;
26038;SDS011;13815;52.374;4.882;2023-07-16T01:48:30;7.00;;;6.80;;
26038;SDS011;13815;52.374;4.882;2023-07-16T01:51:00;7.05;;;6.85;;
26038;SDS011;13815;52.374;4.882;2023-07-16T01:53:26;7.20;;;7.00;;
26038;SDS011;13815;52.374;4.882;2023-07-16T01:55:52;7.13;;;6.93;;
26038;SDS011;13815;52.374;4.882;2023-07-16T01:58:17;7.00;;;6.80;;
26038;SDS011;13815;52.374;4.882;2023-07-16T02:00:43;6.30;;;6.10;;
26038;SDS011;13815;52.374;4.882;2023-07-16T02:03:08;5.43;;;5.32;;
26038;SDS011;13815;52.374;4.882;2023-07-16T02:05:34;5.20;;;5.10;;
26038;SDS011;13815;52.374;4.882;2023-07-16T02:07:59;5.40;;;5.30;;
26038;SDS011;13815;52.374;4.882;2023-07-16T02:10:25;5.90;;;5.60;;
26038;SDS011;13815;52.374;4.882;2023-07-16T02:12:51;5.10;;;5.00;;
26038;SDS011;13815;52.374;4.882;2023-07-16T02:15:16;5.10;;;5.00;;
26038;SDS011;13815;52.374;4.882;2023-07-16T02:17:42;5.00;;;4.90;;
26038;SDS011;13815;52.374;4.882;2023-07-16T02:20:08;5.20;;;5.10;;
26038;SDS011;13815;52.374;4.882;2023-07-16T02:22:35;5.43;;;5.32;;
26038;SDS011;13815;52.374;4.882;2023-07-16T02:25:01;5.35;;;5.25;;
26038;SDS011;13815;52.374;4.882;2023-07-16T02:27:27;5.40;;;5.30;;
26038;SDS011;13815;52.374;4.882;2023-07-16T02:29:53;5.15;;;5.05;;
26038;SDS011;13815;52.374;4.882;2023-07-16T02:32:18;5.40;;;5.30;;
26038;SDS011;13815;52.374;4.882;2023-07-16T02:34:43;5.00;;;4.90;;
26038;SDS011;13815;52.374;4.882;2023-07-16T02:37:09;4.93;;;4.82;;
26038;SDS011;13815;52.374;4.882;2023-07-16T02:39:34;5.00;;;4.90;;
26038;SDS011;13815;52.374;4.882;2023-07-16T02:41:59;5.00;;;4.90;;
26038;SDS011;13815;52.374;4.882;2023-07-16T02:44:25;4.80;;;4.70;;
26038;SDS011;13815;52.374;4.882;2023-07-16T02:46:50;4.90;;;4.80;;
26038;SDS011;13815;52.374;4.882;2023-07-16T02:49:16;5.50;;;5.30;;
26038;SDS011;13815;52.374;4.882;2023-07-16T02:51:41;5.10;;;5.00;;
26038;SDS011;13815;52.374;4.882;2023-07-16T02:54:06;5.03;;;4.93;;
26038;SDS011;13815;52.374;4.882;2023-07-16T02:56:32;4.90;;;4.80;;
26038;SDS011;13815;52.374;4.882;2023-07-16T02:58:57;4.70;;;4.60;;
26038;SDS011;13815;52.374;4.882;2023-07-16T03:01:23;4.70;;;4.60;;
26038;SDS011;13815;52.374;4.882;2023-07-16T03:03:49;4.60;;;4.50;;
26038;SDS011;13815;52.374;4.882;2023-07-16T03:06:14;5.07;;;4.97;;
26038;SDS011;13815;52.374;4.882;2023-07-16T03:08:39;5.35;;;5.05;;
26038;SDS011;13815;52.374;4.882;2023-07-16T03:11:05;4.90;;;4.80;;
26038;SDS011;13815;52.374;4.882;2023-07-16T03:13:30;5.00;;;4.90;;
26038;SDS011;13815;52.374;4.882;2023-07-16T03:15:55;5.50;;;5.20;;
26038;SDS011;13815;52.374;4.882;2023-07-16T03:18:21;5.20;;;5.10;;
26038;SDS011;13815;52.374;4.882;2023-07-16T03:20:46;5.07;;;4.97;;
26038;SDS011;13815;52.374;4.882;2023-07-16T03:23:12;4.85;;;4.75;;
26038;SDS011;13815;52.374;4.882;2023-07-16T03:25:37;4.43;;;4.32;;
26038;SDS011;13815;52.374;4.882;2023-07-16T03:28:02;4.40;;;4.30;;
26038;SDS011;13815;52.374;4.882;2023-07-16T03:30:30;4.10;;;4.00;;
26038;SDS011;13815;52.374;4.882;2023-07-16T03:32:55;3.90;;;3.80;;
26038;SDS011;13815;52.374;4.882;2023-07-16T03:35:21;3.60;;;3.50;;
26038;SDS011;13815;52.374;4.882;2023-07-16T03:37:46;3.70;;;3.60;;
26038;SDS011;13815;52.374;4.882;2023-07-16T03:40:15;3.80;;;3.70;;
26038;SDS011;13815;52.374;4.882;2023-07-16T03:42:41;3.70;;;3.60;;
26038;SDS011;13815;52.374;4.882;2023-07-16T03:45:07;3.65;;;3.55;;
26038;SDS011;13815;52.374;4.882;2023-07-16T03:47:34;3.83;;;3.72;;
26038;SDS011;13815;52.374;4.882;2023-07-16T03:49:59;3.60;;;3.50;;
26038;SDS011;13815;52.374;4.882;2023-07-16T03:55:35;3.80;;;3.70;;
26038;SDS011;13815;52.374;4.882;2023-07-16T03:58:01;3.60;;;3.50;;
26038;SDS011;13815;52.374;4.882;2023-07-16T04:00:26;4.00;;;3.80;;
26038;SDS011;13815;52.374;4.882;2023-07-16T04:02:52;3.50;;;3.40;;
26038;SDS011;13815;52.374;4.882;2023-07-16T04:08:39;2.90;;;2.90;;
26038;SDS011;13815;52.374;4.882;2023-07-16T04:11:04;2.95;;;2.75;;
26038;SDS011;13815;52.374;4.882;2023-07-16T04:13:30;2.00;;;2.00;;
26038;SDS011;13815;52.374;4.882;2023-07-16T04:15:58;1.80;;;1.80;;
26038;SDS011;13815;52.374;4.882;2023-07-16T04:18:24;1.40;;;1.40;;
26038;SDS011;13815;52.374;4.882;2023-07-16T04:20:50;1.10;;;1.10;;
26038;SDS011;13815;52.374;4.882;2023-07-16T04:23:15;0.70;;;0.70;;
26038;SDS011;13815;52.374;4.882;2023-07-16T04:25:41;0.50;;;0.50;;
26038;SDS011;13815;52.374;4.882;2023-07-16T04:28:06;0.40;;;0.40;;
26038;SDS011;13815;52.374;4.882;2023-07-16T04:30:31;0.98;;;0.60;;
26038;SDS011;13815;52.374;4.882;2023-07-16T04:32:57;0.30;;;0.30;;
26038;SDS011;13815;52.374;4.882;2023-07-16T04:35:22;0.30;;;0.30;;
26038;SDS011;13815;52.374;4.882;2023-07-16T04:37:48;0.20;;;0.20;;
26038;SDS011;13815;52.374;4.882;2023-07-16T04:40:16;0.28;;;0.28;;
26038;SDS011;13815;52.374;4.882;2023-07-16T04:42:41;0.20;;;0.20;;
26038;SDS011;13815;52.374;4.882;2023-07-16T04:45:07;0.20;;;0.20;;
26038;SDS011;13815;52.374;4.882;2023-07-16T04:47:32;0.20;;;0.20;;
26038;SDS011;13815;52.374;4.882;2023-07-16T04:49:58;0.20;;;0.20;;
26038;SDS011;13815;52.374;4.882;2023-07-16T04:52:23;0.20;;;0.20;;
26038;SDS011;13815;52.374;4.882;2023-07-16T04:54:49;0.20;;;0.20;;
26038;SDS011;13815;52.374;4.882;2023-07-16T04:57:17;0.20;;;0.20;;
26038;SDS011;13815;52.374;4.882;2023-07-16T04:59:42;0.20;;;0.20;;
26038;SDS011;13815;52.374;4.882;2023-07-16T05:02:08;1.08;;;0.50;;
26038;SDS011;13815;52.374;4.882;2023-07-16T05:04:33;0.30;;;0.30;;
26038;SDS011;13815;52.374;4.882;2023-07-16T05:07:00;0.38;;;0.38;;
26038;SDS011;13815;52.374;4.882;2023-07-16T05:09:26;2.05;;;0.80;;
26038;SDS011;13815;52.374;4.882;2023-07-16T05:11:52;0.50;;;0.50;;
26038;SDS011;13815;52.374;4.882;2023-07-16T05:14:17;0.50;;;0.50;;
26038;SDS011;13815;52.374;4.882;2023-07-16T05:16:42;0.50;;;0.50;;
26038;SDS011;13815;52.374;4.882;2023-07-16T05:19:10;0.40;;;0.40;;
26038;SDS011;13815;52.374;4.882;2023-07-16T05:21:36;0.40;;;0.40;;
26038;SDS011;13815;52.374;4.882;2023-07-16T05:24:01;0.40;;;0.40;;
26038;SDS011;13815;52.374;4.882;2023-07-16T05:26:27;0.50;;;0.50;;
26038;SDS011;13815;52.374;4.882;2023-07-16T05:28:52;0.60;;;0.60;;
26038;SDS011;13815;52.374;4.882;2023-07-16T05:31:17;0.50;;;0.50;;
26038;SDS011;13815;52.374;4.882;2023-07-16T05:33:43;0.70;;;0.70;;
26038;SDS011;13815;52.374;4.882;2023-07-16T05:36:08;1.75;;;1.15;;
26038;SDS011;13815;52.374;4.882;2023-07-16T05:38:33;1.20;;;1.20;;
26038;SDS011;13815;52.374;4.882;2023-07-16T05:41:02;1.50;;;1.50;;
26038;SDS011;13815;52.374;4.882;2023-07-16T05:43:28;2.20;;;2.20;;
26038;SDS011;13815;52.374;4.882;2023-07-16T05:45:53;2.50;;;2.50;;
26038;SDS011;13815;52.374;4.882;2023-07-16T05:48:19;3.10;;;3.00;;
26038;SDS011;13815;52.374;4.882;2023-07-16T05:50:44;3.60;;;3.50;;
26038;SDS011;13815;52.374;4.882;2023-07-16T05:53:10;4.30;;;4.20;;
26038;SDS011;13815;52.374;4.882;2023-07-16T05:55:36;4.60;;;4.50;;
26038;SDS011;13815;52.374;4.882;2023-07-16T05:58:01;5.50;;;5.40;;
26038;SDS011;13815;52.374;4.882;2023-07-16T06:00:27;6.15;;;6.05;;
26038;SDS011;13815;52.374;4.882;2023-07-16T06:02:52;5.28;;;5.18;;
26038;SDS011;13815;52.374;4.882;2023-07-16T06:05:17;6.00;;;5.90;;
26038;SDS011;13815;52.374;4.882;2023-07-16T06:07:43;6.03;;;5.93;;
26038;SDS011;13815;52.374;4.882;2023-07-16T06:10:11;6.70;;;6.50;;
26038;SDS011;13815;52.374;4.882;2023-07-16T06:12:39;6.70;;;6.47;;
26038;SDS011;13815;52.374;4.882;2023-07-16T06:15:05;6.50;;;6.30;;
26038;SDS011;13815;52.374;4.882;2023-07-16T06:17:30;6.60;;;6.40;;
26038;SDS011;13815;52.374;4.882;2023-07-16T06:19:56;6.40;;;6.20;;
26038;SDS011;13815;52.374;4.882;2023-07-16T06:22:22;6.20;;;6.00;;
26038;SDS011;13815;52.374;4.882;2023-07-16T06:24:48;5.65;;;5.55;;
26038;SDS011;13815;52.374;4.882;2023-07-16T06:27:13;5.65;;;5.55;;
26038;SDS011;13815;52.374;4.882;2023-07-16T06:29:38;5.40;;;5.30;;
26038;SDS011;13815;52.374;4.882;2023-07-16T06:32:04;5.30;;;5.20;;
26038;SDS011;13815;52.374;4.882;2023-07-16T06:34:31;6.05;;;5.75;;
26038;SDS011;13815;52.374;4.882;2023-07-16T06:36:56;5.90;;;5.80;;
26038;SDS011;13815;52.374;4.882;2023-07-16T06:39:22;5.95;;;5.85;;
26038;SDS011;13815;52.374;4.882;2023-07-16T06:41:47;6.60;;;6.32;;
26038;SDS011;13815;52.374;4.882;2023-07-16T06:44:12;7.07;;;6.88;;
26038;SDS011;13815;52.374;4.882;2023-07-16T06:46:38;7.38;;;7.18;;
26038;SDS011;13815;52.374;4.882;2023-07-16T06:49:04;7.40;;;7.20;;
26038;SDS011;13815;52.374;4.882;2023-07-16T06:51:30;7.47;;;7.28;;
26038;SDS011;13815;52.374;4.882;2023-07-16T06:53:57;8.35;;;8.05;;
26038;SDS011;13815;52.374;4.882;2023-07-16T06:56:22;8.30;;;8.10;;
26038;SDS011;13815;52.374;4.882;2023-07-16T06:58:48;9.32;;;9.02;;
26038;SDS011;13815;52.374;4.882;2023-07-16T07:01:13;9.65;;;9.35;;
26038;SDS011;13815;52.374;4.882;2023-07-16T07:03:38;9.90;;;9.60;;
26038;SDS011;13815;52.374;4.882;2023-07-16T07:06:04;10.05;;;9.75;;
26038;SDS011;13815;52.374;4.882;2023-07-16T07:08:29;11.10;;;10.60;;
26038;SDS011;13815;52.374;4.882;2023-07-16T07:10:55;10.50;;;10.20;;
26038;SDS011;13815;52.374;4.882;2023-07-16T07:13:21;10.82;;;10.43;;
26038;SDS011;13815;52.374;4.882;2023-07-16T07:15:46;10.20;;;9.90;;
26038;SDS011;13815;52.374;4.882;2023-07-16T07:18:12;10.40;;;10.10;;
26038;SDS011;13815;52.374;4.882;2023-07-16T07:20:37;10.38;;;10.07;;
26038;SDS011;13815;52.374;4.882;2023-07-16T07:23:04;10.73;;;10.32;;
26038;SDS011;13815;52.374;4.882;2023-07-16T07:25:30;10.60;;;10.20;;
26038;SDS011;13815;52.374;4.882;2023-07-16T07:27:55;10.85;;;10.35;;
26038;SDS011;13815;52.374;4.882;2023-07-16T07:30:21;10.00;;;9.70;;
26038;SDS011;13815;52.374;4.882;2023-07-16T07:32:46;9.10;;;8.80;;
26038;SDS011;13815;52.374;4.882;2023-07-16T07:35:13;8.80;;;8.50;;
26038;SDS011;13815;52.374;4.882;2023-07-16T07:37:38;8.50;;;8.30;;
26038;SDS011;13815;52.374;4.882;2023-07-16T07:40:04;8.68;;;8.43;;
26038;SDS011;13815;52.374;4.882;2023-07-16T07:42:29;8.80;;;8.50;;
26038;SDS011;13815;52.374;4.882;2023-07-16T07:44:55;9.02;;;8.73;;
26038;SDS011;13815;52.374;4.882;2023-07-16T07:47:20;9.40;;;9.10;;
26038;SDS011;13815;52.374;4.882;2023-07-16T07:49:46;9.98;;;9.68;;
26038;SDS011;13815;52.374;4.882;2023-07-16T07:52:11;9.88;;;9.57;;
26038;SDS011;13815;52.374;4.882;2023-07-16T07:54:37;10.50;;;10.20;;
26038;SDS011;13815;52.374;4.882;2023-07-16T07:57:03;10.40;;;10.10;;
26038;SDS011;13815;52.374;4.882;2023-07-16T07:59:29;10.90;;;10.50;;
26038;SDS011;13815;52.374;4.882;2023-07-16T08:01:55;11.65;;;11.05;;
26038;SDS011;13815;52.374;4.882;2023-07-16T08:04:21;11.55;;;11.15;;
26038;SDS011;13815;52.374;4.882;2023-07-16T08:06:46;11.73;;;11.32;;
26038;SDS011;13815;52.374;4.882;2023-07-16T08:09:11;11.90;;;11.50;;
26038;SDS011;13815;52.374;4.882;2023-07-16T08:11:37;11.70;;;11.30;;
26038;SDS011;13815;52.374;4.882;2023-07-16T08:14:02;12.57;;;12.05;;
26038;SDS011;13815;52.374;4.882;2023-07-16T08:19:27;12.90;;;12.30;;
26038;SDS011;13815;52.374;4.882;2023-07-16T08:21:53;12.57;;;12.07;;
26038;SDS011;13815;52.374;4.882;2023-07-16T08:24:19;12.60;;;12.10;;
26038;SDS011;13815;52.374;4.882;2023-07-16T08:26:44;13.32;;;12.73;;
26038;SDS011;13815;52.374;4.882;2023-07-16T08:29:10;12.93;;;12.43;;
26038;SDS011;13815;52.374;4.882;2023-07-16T08:31:35;12.80;;;12.20;;
26038;SDS011;13815;52.374;4.882;2023-07-16T08:34:01;12.40;;;12.00;;
26038;SDS011;13815;52.374;4.882;2023-07-16T08:36:26;12.18;;;11.77;;
26038;SDS011;13815;52.374;4.882;2023-07-16T08:38:52;11.98;;;11.57;;
26038;SDS011;13815;52.374;4.882;2023-07-16T08:41:17;11.85;;;11.45;;
26038;SDS011;13815;52.374;4.882;2023-07-16T08:43:44;11.70;;;11.30;;
26038;SDS011;13815;52.374;4.882;2023-07-16T08:46:12;12.10;;;11.70;;
26038;SDS011;13815;52.374;4.882;2023-07-16T08:48:37;12.02;;;11.63;;
26038;SDS011;13815;52.374;4.882;2023-07-16T08:51:03;12.88;;;12.38;;
26038;SDS011;13815;52.374;4.882;2023-07-16T08:53:29;13.52;;;13.02;;
26038;SDS011;13815;52.374;4.882;2023-07-16T08:55:55;13.52;;;13.02;;
26038;SDS011;13815;52.374;4.882;2023-07-16T08:58:22;14.60;;;14.00;;
26038;SDS011;13815;52.374;4.882;2023-07-16T09:00:48;15.50;;;14.80;;
26038;SDS011;13815;52.374;4.882;2023-07-16T09:03:15;16.23;;;15.43;;
26038;SDS011;13815;52.374;4.882;2023-07-16T09:08:52;13.80;;;13.18;;
26038;SDS011;13815;52.374;4.882;2023-07-16T09:11:17;12.95;;;12.45;;
26038;SDS011;13815;52.374;4.882;2023-07-16T09:13:48;13.25;;;12.75;;
26038;SDS011;13815;52.374;4.882;2023-07-16T09:16:14;13.82;;;13.25;;
26038;SDS011;13815;52.374;4.882;2023-07-16T09:18:41;14.40;;;13.80;;
26038;SDS011;13815;52.374;4.882;2023-07-16T09:21:07;15.25;;;14.38;;
26038;SDS011;13815;52.374;4.882;2023-07-16T09:23:33;15.40;;;14.70;;
26038;SDS011;13815;52.374;4.882;2023-07-16T09:25:59;16.55;;;15.65;;
26038;SDS011;13815;52.374;4.882;2023-07-16T09:28:24;17.30;;;16.30;;
26038;SDS011;13815;52.374;4.882;2023-07-16T09:30:50;18.65;;;17.45;;
26038;SDS011;13815;52.374;4.882;2023-07-16T09:33:17;18.10;;;16.90;;
26038;SDS011;13815;52.374;4.882;2023-07-16T09:35:43;17.70;;;16.60;;
26038;SDS011;13815;52.374;4.882;2023-07-16T09:38:09;18.92;;;17.45;;
26038;SDS011;13815;52.374;4.882;2023-07-16T09:40:38;20.70;;;18.80;;
26038;SDS011;13815;52.374;4.882;2023-07-16T09:43:03;20.95;;;19.15;;
26038;SDS011;13815;52.374;4.882;2023-07-16T09:45:29;20.30;;;18.60;;
26038;SDS011;13815;52.374;4.882;2023-07-16T09:47:55;20.10;;;18.40;;
26038;SDS011;13815;52.374;4.882;2023-07-16T09:50:22;20.33;;;18.63;;
26038;SDS011;13815;52.374;4.882;2023-07-16T09:52:48;20.77;;;19.02;;
26038;SDS011;13815;52.374;4.882;2023-07-16T09:55:14;21.00;;;19.17;;
26038;SDS011;13815;52.374;4.882;2023-07-16T09:57:41;21.80;;;19.90;;
26038;SDS011;13815;52.374;4.882;2023-07-16T10:00:08;21.83;;;19.77;;
26038;SDS011;13815;52.374;4.882;2023-07-16T10:02:38;21.15;;;19.35;;
26038;SDS011;13815;52.374;4.882;2023-07-16T10:05:16;21.05;;;19.25;;
26038;SDS011;13815;52.374;4.882;2023-07-16T10:07:48;21.20;;;19.38;;
26038;SDS011;13815;52.374;4.882;2023-07-16T10:10:15;20.07;;;18.47;;
26038;SDS011;13815;52.374;4.882;2023-07-16T10:12:42;18.60;;;17.20;;
26038;SDS011;13815;52.374;4.882;2023-07-16T10:15:10;19.25;;;17.75;;
26038;SDS011;13815;52.374;4.882;2023-07-16T10:17:36;19.90;;;18.15;;
26038;SDS011;13815;52.374;4.882;2023-07-16T10:22:46;17.67;;;16.38;;
26038;SDS011;13815;52.374;4.882;2023-07-16T10:27:44;17.10;;;16.00;;
26038;SDS011;13815;52.374;4.882;2023-07-16T10:30:14;17.52;;;16.33;;
26038;SDS011;13815;52.374;4.882;2023-07-16T10:32:40;17.92;;;16.63;;
26038;SDS011;13815;52.374;4.882;2023-07-16T10:35:06;18.15;;;16.85;;
26038;SDS011;13815;52.374;4.882;2023-07-16T10:37:33;18.17;;;16.88;;
26038;SDS011;13815;52.374;4.882;2023-07-16T10:40:00;17.65;;;16.38;;
26038;SDS011;13815;52.374;4.882;2023-07-16T10:42:26;18.33;;;16.92;;
26038;SDS011;13815;52.374;4.882;2023-07-16T10:44:53;18.48;;;17.08;;
26038;SDS011;13815;52.374;4.882;2023-07-16T10:47:23;18.90;;;17.30;;
26038;SDS011;13815;52.374;4.882;2023-07-16T10:49:50;18.15;;;16.85;;
26038;SDS011;13815;52.374;4.882;2023-07-16T10:52:17;19.30;;;17.75;;
26038;SDS011;13815;52.374;4.882;2023-07-16T10:54:43;19.73;;;18.10;;
26038;SDS011;13815;52.374;4.882;2023-07-16T10:57:09;20.60;;;18.70;;
26038;SDS011;13815;52.374;4.882;2023-07-16T10:59:37;24.75;;;20.85;;
26038;SDS011;13815;52.374;4.882;2023-07-16T11:02:04;27.70;;;21.52;;
26038;SDS011;13815;52.374;4.882;2023-07-16T11:04:34;30.58;;;22.70;;
26038;SDS011;13815;52.374;4.882;2023-07-16T11:07:03;32.03;;;22.52;;
26038;SDS011;13815;52.374;4.882;2023-07-16T11:09:29;31.38;;;22.95;;
26038;SDS011;13815;52.374;4.882;2023-07-16T11:11:54;31.45;;;23.67;;
26038;SDS011;13815;52.374;4.882;2023-07-16T11:14:21;31.95;;;23.35;;
26038;SDS011;13815;52.374;4.882;2023-07-16T11:16:46;30.83;;;22.85;;
26038;SDS011;13815;52.374;4.882;2023-07-16T11:19:13;33.88;;;24.10;;
26038;SDS011;13815;52.374;4.882;2023-07-16T11:21:38;31.92;;;23.98;;
26038;SDS011;13815;52.374;4.882;2023-07-16T11:24:07;31.63;;;23.33;;
26038;SDS011;13815;52.374;4.882;2023-07-16T11:26:37;36.70;;;24.98;;
26038;SDS011;13815;52.374;4.882;2023-07-16T11:29:12;34.67;;;24.73;;
26038;SDS011;13815;52.374;4.882;2023-07-16T11:31:39;36.30;;;25.10;;
26038;SDS011;13815;52.374;4.882;2023-07-16T11:34:12;36.15;;;26.15;;
26038;SDS011;13815;52.374;4.882;2023-07-16T11:36:38;34.15;;;25.17;;
26038;SDS011;13815;52.374;4.882;2023-07-16T11:39:03;37.70;;;25.40;;
26038;SDS011;13815;52.374;4.882;2023-07-16T11:41:29;35.63;;;26.13;;
26038;SDS011;13815;52.374;4.882;2023-07-16T11:43:58;36.78;;;25.33;;
26038;SDS011;13815;52.374;4.882;2023-07-16T11:46:24;37.90;;;26.75;;
26038;SDS011;13815;52.374;4.882;2023-07-16T11:48:50;37.25;;;26.73;;
26038;SDS011;13815;52.374;4.882;2023-07-16T11:51:15;39.63;;;26.17;;
26038;SDS011;13815;52.374;4.882;2023-07-16T11:53:40;36.00;;;25.60;;
26038;SDS011;13815;52.374;4.882;2023-07-16T11:56:06;36.22;;;26.17;;
26038;SDS011;13815;52.374;4.882;2023-07-16T11:58:31;37.88;;;26.38;;
26038;SDS011;13815;52.374;4.882;2023-07-16T12:00:57;38.60;;;26.30;;
26038;SDS011;13815;52.374;4.882;2023-07-16T12:03:22;34.35;;;24.58;;
26038;SDS011;13815;52.374;4.882;2023-07-16T12:05:47;35.83;;;24.83;;
26038;SDS011;13815;52.374;4.882;2023-07-16T12:08:13;34.17;;;25.30;;
26038;SDS011;13815;52.374;4.882;2023-07-16T12:10:41;34.42;;;25.48;;
26038;SDS011;13815;52.374;4.882;2023-07-16T12:13:08;36.28;;;26.05;;
26038;SDS011;13815;52.374;4.882;2023-07-16T12:15:33;35.35;;;25.70;;
26038;SDS011;13815;52.374;4.882;2023-07-16T12:17:59;38.10;;;26.30;;
26038;SDS011;13815;52.374;4.882;2023-07-16T12:20:24;37.22;;;26.52;;
26038;SDS011;13815;52.374;4.882;2023-07-16T12:22:53;37.40;;;25.52;;
26038;SDS011;13815;52.374;4.882;2023-07-16T12:25:18;37.60;;;25.85;;
26038;SDS011;13815;52.374;4.882;2023-07-16T12:27:44;36.45;;;25.02;;
26038;SDS011;13815;52.374;4.882;2023-07-16T12:30:09;38.00;;;26.05;;
26038;SDS011;13815;52.374;4.882;2023-07-16T12:32:35;41.70;;;26.38;;
26038;SDS011;13815;52.374;4.882;2023-07-16T12:35:00;41.33;;;26.00;;
26038;SDS011;13815;52.374;4.882;2023-07-16T12:37:29;39.25;;;26.30;;
26038;SDS011;13815;52.374;4.882;2023-07-16T12:39:54;41.65;;;27.13;;
26038;SDS011;13815;52.374;4.882;2023-07-16T12:42:20;38.45;;;25.55;;
26038;SDS011;13815;52.374;4.882;2023-07-16T12:44:55;40.03;;;26.27;;
26038;SDS011;13815;52.374;4.882;2023-07-16T12:47:20;39.15;;;26.17;;
26038;SDS011;13815;52.374;4.882;2023-07-16T12:49:49;45.42;;;28.75;;
26038;SDS011;13815;52.374;4.882;2023-07-16T12:52:14;42.75;;;27.30;;
26038;SDS011;13815;52.374;4.882;2023-07-16T12:54:39;39.55;;;26.30;;
26038;SDS011;13815;52.374;4.882;2023-07-16T12:57:05;42.28;;;26.52;;
26038;SDS011;13815;52.374;4.882;2023-07-16T12:59:31;39.28;;;25.80;;
26038;SDS011;13815;52.374;4.882;2023-07-16T13:01:56;40.63;;;26.70;;
26038;SDS011;13815;52.374;4.882;2023-07-16T13:04:21;43.67;;;27.42;;
26038;SDS011;13815;52.374;4.882;2023-07-16T13:06:47;38.75;;;25.90;;
26038;SDS011;13815;52.374;4.882;2023-07-16T13:09:13;41.65;;;26.67;;
26038;SDS011;13815;52.374;4.882;2023-07-16T13:11:40;41.28;;;27.98;;
26038;SDS011;13815;52.374;4.882;2023-07-16T13:14:06;41.08;;;26.95;;
26038;SDS011;13815;52.374;4.882;2023-07-16T13:16:31;40.13;;;26.85;;
26038;SDS011;13815;52.374;4.882;2023-07-16T13:18:57;41.90;;;28.40;;
26038;SDS011;13815;52.374;4.882;2023-07-16T13:21:22;42.72;;;28.40;;
26038;SDS011;13815;52.374;4.882;2023-07-16T13:23:47;42.78;;;28.60;;
26038;SDS011;13815;52.374;4.882;2023-07-16T13:26:13;42.58;;;28.45;;
26038;SDS011;13815;52.374;4.882;2023-07-16T13:28:38;39.80;;;25.52;;
26038;SDS011;13815;52.374;4.882;2023-07-16T13:31:03;43.42;;;26.50;;
26038;SDS011;13815;52.374;4.882;2023-07-16T13:33:29;41.92;;;26.85;;
26038;SDS011;13815;52.374;4.882;2023-07-16T13:35:55;44.35;;;27.80;;
26038;SDS011;13815;52.374;4.882;2023-07-16T13:38:20;41.72;;;27.10;;
26038;SDS011;13815;52.374;4.882;2023-07-16T13:40:45;41.58;;;27.25;;
26038;SDS011;13815;52.374;4.882;2023-07-16T13:43:11;40.10;;;26.52;;
26038;SDS011;13815;52.374;4.882;2023-07-16T13:45:38;45.17;;;27.73;;
26038;SDS011;13815;52.374;4.882;2023-07-16T13:48:04;41.35;;;27.08;;
26038;SDS011;13815;52.374;4.882;2023-07-16T13:50:29;40.85;;;26.85;;
26038;SDS011;13815;52.374;4.882;2023-07-16T13:52:54;42.30;;;28.00;;
26038;SDS011;13815;52.374;4.882;2023-07-16T13:55:20;43.13;;;27.35;;
26038;SDS011;13815;52.374;4.882;2023-07-16T13:57:45;40.92;;;26.75;;
26038;SDS011;13815;52.374;4.882;2023-07-16T14:00:11;41.67;;;25.50;;
26038;SDS011;13815;52.374;4.882;2023-07-16T14:02:37;35.08;;;23.85;;
26038;SDS011;13815;52.374;4.882;2023-07-16T14:05:03;36.15;;;25.02;;
26038;SDS011;13815;52.374;4.882;2023-07-16T14:07:29;38.35;;;24.35;;
26038;SDS011;13815;52.374;4.882;2023-07-16T14:09:56;34.65;;;24.42;;
26038;SDS011;13815;52.374;4.882;2023-07-16T14:12:21;34.95;;;24.33;;
26038;SDS011;13815;52.374;4.882;2023-07-16T14:14:47;36.08;;;25.08;;
26038;SDS011;13815;52.374;4.882;2023-07-16T14:17:12;37.35;;;25.75;;
26038;SDS011;13815;52.374;4.882;2023-07-16T14:19:37;39.25;;;25.70;;
26038;SDS011;13815;52.374;4.882;2023-07-16T14:22:05;35.65;;;23.98;;
26038;SDS011;13815;52.374;4.882;2023-07-16T14:24:30;39.95;;;24.75;;
26038;SDS011;13815;52.374;4.882;2023-07-16T14:26:57;38.33;;;24.52;;
26038;SDS011;13815;52.374;4.882;2023-07-16T14:29:24;35.80;;;25.10;;
26038;SDS011;13815;52.374;4.882;2023-07-16T14:31:49;35.92;;;25.35;;
26038;SDS011;13815;52.374;4.882;2023-07-16T14:34:15;50.33;;;26.63;;
26038;SDS011;13815;52.374;4.882;2023-07-16T14:36:41;40.67;;;25.70;;
26038;SDS011;13815;52.374;4.882;2023-07-16T14:39:07;37.63;;;25.48;;
26038;SDS011;13815;52.374;4.882;2023-07-16T14:41:32;42.80;;;26.77;;
26038;SDS011;13815;52.374;4.882;2023-07-16T14:43:57;35.75;;;24.15;;
26038;SDS011;13815;52.374;4.882;2023-07-16T14:46:23;35.63;;;23.90;;
26038;SDS011;13815;52.374;4.882;2023-07-16T14:48:49;38.80;;;24.45;;
26038;SDS011;13815;52.374;4.882;2023-07-16T14:51:20;35.70;;;24.17;;
26038;SDS011;13815;52.374;4.882;2023-07-16T14:53:46;35.28;;;23.77;;